»·PEaware :: N8263E KSNA-KSNA

N8263E :: KSNA-KSNA

FLIGHT INFORMATION

Flight Status: Arrived
Operator: Privately registered:
United States
More flights under this callsign
Pilot: Ted C. (30606)
Aircraft: PIPER PA-32 SARATOGA
(PA32)
More flights by this aircraft type
Origin: KSNA John Wayne-Orange Co
United States
Destination: KSNA John Wayne-Orange Co
United States
More flights between these airports :: More routes between these airports
Route: SLI
File this flight plan on PilotEdge
Remarks: Vectors for ILS RWY 20R
Altitude:
(Current/Filed)
3,000ft
Speed:
(Current/Filed)
140kts
Departed: 13-Jan-21 02:48 PM
Arrived: 13-Jan-21 03:13 PM
Distance/Time
Traveled:
0nm/0:25
Distance/Time
To Go:
Arrived

Flight Plot

Page will automatically refresh every two minutes.


Map Options




Map Legend


Flown Route
Filed Route
Departure Airport
Arrival Airport
Navaid (VOR, NDB)
Fix

Horizontal Profiles

Position Reports

Time Latitude Longitude Heading Altitude Ground
Speed
13-Jan-21 14:11 33.668908 -117.875686 208 59ft 0kts
13-Jan-21 14:12 33.668908 -117.875686 208 59ft 0kts
13-Jan-21 14:13 33.668908 -117.875686 208 59ft 0kts
13-Jan-21 14:14 33.668908 -117.875686 208 59ft 0kts
13-Jan-21 14:15 33.668908 -117.875686 208 59ft 0kts
13-Jan-21 14:16 33.668908 -117.875686 208 59ft 0kts
13-Jan-21 14:17 33.668908 -117.875686 208 59ft 0kts
13-Jan-21 14:18 33.668908 -117.875686 208 59ft 0kts
13-Jan-21 14:19 33.668908 -117.875686 208 59ft 0kts
13-Jan-21 14:20 33.668908 -117.875686 208 59ft 0kts
13-Jan-21 14:21 33.668908 -117.875686 208 59ft 0kts
13-Jan-21 14:22 33.668908 -117.875686 208 59ft 0kts
13-Jan-21 14:23 33.668908 -117.875686 208 59ft 0kts
13-Jan-21 14:24 33.668908 -117.875686 208 59ft 0kts
13-Jan-21 14:25 33.668908 -117.875686 208 59ft 0kts
13-Jan-21 14:26 33.668908 -117.875686 208 59ft 0kts
13-Jan-21 14:27 33.668908 -117.875686 208 59ft 0kts
13-Jan-21 14:28 33.668908 -117.875686 208 59ft 0kts
13-Jan-21 14:29 33.668908 -117.875686 208 59ft 0kts
13-Jan-21 14:30 33.668908 -117.875686 208 60ft 0kts
13-Jan-21 14:31 33.668908 -117.875686 208 60ft 0kts
13-Jan-21 14:32 33.668908 -117.875686 208 60ft 0kts
13-Jan-21 14:33 33.668908 -117.875686 208 60ft 0kts
13-Jan-21 14:34 33.668908 -117.875686 208 60ft 0kts
13-Jan-21 14:35 33.668689 -117.875355 83 60ft 4kts
13-Jan-21 14:36 33.671001 -117.873300 26 60ft 15kts
13-Jan-21 14:37 33.674133 -117.871320 28 59ft 12kts
13-Jan-21 14:38 33.677688 -117.869011 27 60ft 13kts
13-Jan-21 14:39 33.680585 -117.867407 28 60ft 12kts
13-Jan-21 14:40 33.681217 -117.866488 107 59ft 0kts
13-Jan-21 14:41 33.681217 -117.866488 107 59ft 0kts
13-Jan-21 14:42 33.681217 -117.866488 107 59ft 0kts
13-Jan-21 14:43 33.681217 -117.866488 107 59ft 0kts
13-Jan-21 14:44 33.681217 -117.866488 107 59ft 0kts
13-Jan-21 14:45 33.681217 -117.866488 107 59ft 0kts
13-Jan-21 14:46 33.681109 -117.866155 117 60ft 14kts
13-Jan-21 14:47 33.662575 -117.881721 242 486ft 134kts
13-Jan-21 14:48 33.643947 -117.925823 243 1543ft 156kts
13-Jan-21 14:49 33.622952 -117.975468 243 2192ft 178kts
13-Jan-21 14:50 33.601712 -118.027691 262 2989ft 178kts
13-Jan-21 14:51 33.638989 -118.036133 33 3383ft 179kts
13-Jan-21 14:52 33.678957 -118.005610 28 2985ft 153kts
13-Jan-21 14:53 33.712538 -117.982106 33 2887ft 135kts
13-Jan-21 14:54 33.741854 -117.957321 34 2997ft 107kts
13-Jan-21 14:55 33.766436 -117.936390 34 3022ft 108kts
13-Jan-21 14:56 33.791076 -117.915245 33 3044ft 109kts
13-Jan-21 14:57 33.822031 -117.890424 28 3165ft 156kts
13-Jan-21 14:58 33.860403 -117.860878 32 3145ft 162kts
13-Jan-21 14:59 33.898058 -117.829466 32 3018ft 164kts
13-Jan-21 15:00 33.935118 -117.797834 32 2987ft 158kts
13-Jan-21 15:01 33.947421 -117.759002 111 2986ft 138kts
13-Jan-21 15:02 33.922789 -117.734430 186 2985ft 131kts
13-Jan-21 15:03 33.887068 -117.737337 183 2976ft 127kts
13-Jan-21 15:04 33.855879 -117.751441 217 2975ft 113kts
13-Jan-21 15:05 33.830627 -117.772741 221 2848ft 96kts
13-Jan-21 15:06 33.807348 -117.786495 193 2671ft 105kts
13-Jan-21 15:07 33.781080 -117.800139 211 2174ft 98kts
13-Jan-21 15:08 33.757777 -117.817476 206 1592ft 106kts
13-Jan-21 15:09 33.731634 -117.832958 207 1155ft 95kts
13-Jan-21 15:10 33.708533 -117.847594 209 776ft 90kts
13-Jan-21 15:11 33.687267 -117.861465 210 253ft 80kts
13-Jan-21 15:12 33.675906 -117.869635 289 59ft 0kts
13-Jan-21 15:13 33.676016 -117.869913 292 60ft 5kts
13-Jan-21 15:14 33.676061 -117.871054 224 60ft 0kts
13-Jan-21 15:15 33.676061 -117.871054 224 60ft 0kts
13-Jan-21 15:16 33.676061 -117.871054 224 60ft 0kts
13-Jan-21 15:17 33.676061 -117.871054 224 60ft 0kts
13-Jan-21 15:18 33.676061 -117.871054 224 60ft 0kts
13-Jan-21 15:19 33.676061 -117.871054 224 60ft 0kts
13-Jan-21 15:20 33.676061 -117.871054 224 60ft 0kts
13-Jan-21 15:21 33.676061 -117.871054 224 60ft 0kts
13-Jan-21 15:22 33.676061 -117.871054 224 60ft 0kts
13-Jan-21 15:23 33.676061 -117.871054 224 60ft 0kts
13-Jan-21 15:24 33.676061 -117.871054 224 60ft 0kts
13-Jan-21 15:25 33.676061 -117.871054 224 60ft 0kts
13-Jan-21 15:26 33.676061 -117.871054 224 60ft 0kts
13-Jan-21 15:27 33.676061 -117.871054 224 60ft 0kts

Navigation Log

Ident Type
Flight plan parsing failed, navigation log unavailable